Julianehab, Greenland
Current Conditions -  °F | °C
As of 7:50 AM on Saturday 25 Oct 2014 (Local Time) from BGBW Reporting Station
Few Clouds Few Clouds  
Wind Chill: 23°   Ceiling: Unl
Heat Index: 23°   Visibility: 6mi
Dew Point: -2°   Wind: 3mph
Humidity: 33%   Direction: 150°SSE
Pressure: 29.41"   Gusts: NA
Location:  60.75°N, 46.01°W
Report Text: BGBW 250950Z 15003KT 9999 FEW100 M05/M19 Q0996
Loading
Personal Weather Stations






























Interactive Weather Map
Tropical Storm Tracking
New forecast layout! Learn more

10-Day Weather Forecast

Advertisements
Track Severe Weather on mobile